sensor_id;sensor_type;location;lat;lon;timestamp;temperature;humidity
65199;HTU21D;52170;45.018;37.910;2023-05-07T00:01:35;16.05;69.41
65199;HTU21D;52170;45.018;37.910;2023-05-07T00:04:01;16.02;69.40
65199;HTU21D;52170;45.018;37.910;2023-05-07T00:06:27;16.00;69.39
65199;HTU21D;52170;45.018;37.910;2023-05-07T00:08:54;15.97;69.45
65199;HTU21D;52170;45.018;37.910;2023-05-07T00:11:20;15.93;69.52
65199;HTU21D;52170;45.018;37.910;2023-05-07T00:13:46;15.90;69.61
65199;HTU21D;52170;45.018;37.910;2023-05-07T00:16:11;15.88;69.61
65199;HTU21D;52170;45.018;37.910;2023-05-07T00:18:37;15.84;69.71
65199;HTU21D;52170;45.018;37.910;2023-05-07T00:21:03;15.81;69.74
65199;HTU21D;52170;45.018;37.910;2023-05-07T00:23:29;15.75;69.84
65199;HTU21D;52170;45.018;37.910;2023-05-07T00:25:55;15.73;69.78
65199;HTU21D;52170;45.018;37.910;2023-05-07T00:28:21;15.69;69.96
65199;HTU21D;52170;45.018;37.910;2023-05-07T00:30:47;15.66;70.10
65199;HTU21D;52170;45.018;37.910;2023-05-07T00:33:13;15.62;69.98
65199;HTU21D;52170;45.018;37.910;2023-05-07T00:35:38;15.58;69.97
65199;HTU21D;52170;45.018;37.910;2023-05-07T00:38:04;15.55;70.10
65199;HTU21D;52170;45.018;37.910;2023-05-07T00:40:30;15.51;70.13
65199;HTU21D;52170;45.018;37.910;2023-05-07T00:42:56;15.47;70.18
65199;HTU21D;52170;45.018;37.910;2023-05-07T00:45:26;15.43;70.56
65199;HTU21D;52170;45.018;37.910;2023-05-07T00:47:55;15.38;70.45
65199;HTU21D;52170;45.018;37.910;2023-05-07T00:50:22;15.33;70.55
65199;HTU21D;52170;45.018;37.910;2023-05-07T00:52:48;15.31;70.55
65199;HTU21D;52170;45.018;37.910;2023-05-07T00:55:14;15.27;70.48
65199;HTU21D;52170;45.018;37.910;2023-05-07T00:57:40;15.24;70.55
65199;HTU21D;52170;45.018;37.910;2023-05-07T01:00:06;15.19;70.62
65199;HTU21D;52170;45.018;37.910;2023-05-07T01:02:37;15.16;70.67
65199;HTU21D;52170;45.018;37.910;2023-05-07T01:05:03;15.11;70.77
65199;HTU21D;52170;45.018;37.910;2023-05-07T01:07:31;15.07;70.81
65199;HTU21D;52170;45.018;37.910;2023-05-07T01:09:57;15.03;70.84
65199;HTU21D;52170;45.018;37.910;2023-05-07T01:12:23;14.99;70.85
65199;HTU21D;52170;45.018;37.910;2023-05-07T01:14:50;14.94;71.35
65199;HTU21D;52170;45.018;37.910;2023-05-07T01:17:17;14.91;71.09
65199;HTU21D;52170;45.018;37.910;2023-05-07T01:19:44;14.86;71.38
65199;HTU21D;52170;45.018;37.910;2023-05-07T01:22:10;14.84;71.21
65199;HTU21D;52170;45.018;37.910;2023-05-07T01:24:48;14.80;71.20
65199;HTU21D;52170;45.018;37.910;2023-05-07T01:27:15;14.78;71.32
65199;HTU21D;52170;45.018;37.910;2023-05-07T01:29:41;14.73;71.41
65199;HTU21D;52170;45.018;37.910;2023-05-07T01:32:07;14.71;71.41
65199;HTU21D;52170;45.018;37.910;2023-05-07T01:34:33;14.68;71.42
65199;HTU21D;52170;45.018;37.910;2023-05-07T01:37:00;14.67;71.49
65199;HTU21D;52170;45.018;37.910;2023-05-07T01:39:26;14.65;71.42
65199;HTU21D;52170;45.018;37.910;2023-05-07T01:41:54;14.60;71.42
65199;HTU21D;52170;45.018;37.910;2023-05-07T01:44:22;14.57;71.42
65199;HTU21D;52170;45.018;37.910;2023-05-07T01:46:48;14.53;71.55
65199;HTU21D;52170;45.018;37.910;2023-05-07T01:49:14;14.48;71.61
65199;HTU21D;52170;45.018;37.910;2023-05-07T01:51:40;14.43;71.62
65199;HTU21D;52170;45.018;37.910;2023-05-07T01:54:06;14.39;71.64
65199;HTU21D;52170;45.018;37.910;2023-05-07T01:56:33;14.34;71.72
65199;HTU21D;52170;45.018;37.910;2023-05-07T01:58:59;14.29;71.79
65199;HTU21D;52170;45.018;37.910;2023-05-07T02:01:26;14.25;71.88
65199;HTU21D;52170;45.018;37.910;2023-05-07T02:03:52;14.23;71.91
65199;HTU21D;52170;45.018;37.910;2023-05-07T02:06:22;14.20;71.93
65199;HTU21D;52170;45.018;37.910;2023-05-07T02:08:50;14.15;71.93
65199;HTU21D;52170;45.018;37.910;2023-05-07T02:11:16;14.11;71.96
65199;HTU21D;52170;45.018;37.910;2023-05-07T02:13:42;14.08;72.06
65199;HTU21D;52170;45.018;37.910;2023-05-07T02:16:08;14.06;72.07
65199;HTU21D;52170;45.018;37.910;2023-05-07T02:18:33;14.03;72.09
65199;HTU21D;52170;45.018;37.910;2023-05-07T02:21:01;14.01;72.09
65199;HTU21D;52170;45.018;37.910;2023-05-07T02:23:26;13.98;72.09
65199;HTU21D;52170;45.018;37.910;2023-05-07T02:25:52;13.98;72.08
65199;HTU21D;52170;45.018;37.910;2023-05-07T02:28:18;13.98;72.05
65199;HTU21D;52170;45.018;37.910;2023-05-07T02:30:58;13.97;72.00
65199;HTU21D;52170;45.018;37.910;2023-05-07T02:33:25;13.95;72.01
65199;HTU21D;52170;45.018;37.910;2023-05-07T02:35:52;13.94;72.04
65199;HTU21D;52170;45.018;37.910;2023-05-07T02:38:18;13.94;72.02
65199;HTU21D;52170;45.018;37.910;2023-05-07T02:40:43;13.92;72.05
65199;HTU21D;52170;45.018;37.910;2023-05-07T02:43:09;13.89;72.06
65199;HTU21D;52170;45.018;37.910;2023-05-07T02:45:35;13.88;72.09
65199;HTU21D;52170;45.018;37.910;2023-05-07T02:48:04;13.85;72.13
65199;HTU21D;52170;45.018;37.910;2023-05-07T02:50:31;13.83;72.17
65199;HTU21D;52170;45.018;37.910;2023-05-07T02:52:58;13.80;72.21
65199;HTU21D;52170;45.018;37.910;2023-05-07T02:55:24;13.80;72.19
65199;HTU21D;52170;45.018;37.910;2023-05-07T02:57:49;13.78;72.22
65199;HTU21D;52170;45.018;37.910;2023-05-07T03:00:16;13.74;72.24
65199;HTU21D;52170;45.018;37.910;2023-05-07T03:02:50;13.71;72.51
65199;HTU21D;52170;45.018;37.910;2023-05-07T03:05:16;13.66;72.72
65199;HTU21D;52170;45.018;37.910;2023-05-07T03:07:42;13.64;72.70
65199;HTU21D;52170;45.018;37.910;2023-05-07T03:10:11;13.61;72.79
65199;HTU21D;52170;45.018;37.910;2023-05-07T03:12:37;13.60;72.80
65199;HTU21D;52170;45.018;37.910;2023-05-07T03:15:03;13.55;72.86
65199;HTU21D;52170;45.018;37.910;2023-05-07T03:17:28;13.55;72.84
65199;HTU21D;52170;45.018;37.910;2023-05-07T03:19:54;13.53;72.88
65199;HTU21D;52170;45.018;37.910;2023-05-07T03:22:20;13.50;73.02
65199;HTU21D;52170;45.018;37.910;2023-05-07T03:24:46;13.48;73.16
65199;HTU21D;52170;45.018;37.910;2023-05-07T03:27:12;13.47;73.28
65199;HTU21D;52170;45.018;37.910;2023-05-07T03:29:37;13.44;73.44
65199;HTU21D;52170;45.018;37.910;2023-05-07T03:32:03;13.41;73.48
65199;HTU21D;52170;45.018;37.910;2023-05-07T03:34:29;13.40;73.44
65199;HTU21D;52170;45.018;37.910;2023-05-07T03:36:55;13.40;73.48
65199;HTU21D;52170;45.018;37.910;2023-05-07T03:39:22;13.38;73.48
65199;HTU21D;52170;45.018;37.910;2023-05-07T03:41:48;13.37;73.56
65199;HTU21D;52170;45.018;37.910;2023-05-07T03:44:14;13.36;73.70
65199;HTU21D;52170;45.018;37.910;2023-05-07T03:46:40;13.33;73.80
65199;HTU21D;52170;45.018;37.910;2023-05-07T03:49:09;13.31;73.96
65199;HTU21D;52170;45.018;37.910;2023-05-07T03:51:34;13.29;74.11
65199;HTU21D;52170;45.018;37.910;2023-05-07T03:54:02;13.25;74.05
65199;HTU21D;52170;45.018;37.910;2023-05-07T03:56:29;13.25;74.25
65199;HTU21D;52170;45.018;37.910;2023-05-07T03:58:57;13.24;74.34
65199;HTU21D;52170;45.018;37.910;2023-05-07T04:01:23;13.24;74.35
65199;HTU21D;52170;45.018;37.910;2023-05-07T04:03:49;13.22;74.43
65199;HTU21D;52170;45.018;37.910;2023-05-07T04:06:16;13.22;74.61
65199;HTU21D;52170;45.018;37.910;2023-05-07T04:08:45;13.22;74.54
65199;HTU21D;52170;45.018;37.910;2023-05-07T04:11:11;13.22;74.63
65199;HTU21D;52170;45.018;37.910;2023-05-07T04:13:37;13.21;74.66
65199;HTU21D;52170;45.018;37.910;2023-05-07T04:16:05;13.22;75.00
65199;HTU21D;52170;45.018;37.910;2023-05-07T04:18:33;13.20;74.81
65199;HTU21D;52170;45.018;37.910;2023-05-07T04:20:59;13.21;75.31
65199;HTU21D;52170;45.018;37.910;2023-05-07T04:23:25;13.22;75.05
65199;HTU21D;52170;45.018;37.910;2023-05-07T04:25:51;13.24;74.97
65199;HTU21D;52170;45.018;37.910;2023-05-07T04:28:24;13.26;74.83
65199;HTU21D;52170;45.018;37.910;2023-05-07T04:30:50;13.32;74.76
65199;HTU21D;52170;45.018;37.910;2023-05-07T04:33:16;13.33;74.64
65199;HTU21D;52170;45.018;37.910;2023-05-07T04:35:46;13.33;74.69
65199;HTU21D;52170;45.018;37.910;2023-05-07T04:38:13;13.37;74.69
65199;HTU21D;52170;45.018;37.910;2023-05-07T04:40:38;13.37;74.80
65199;HTU21D;52170;45.018;37.910;2023-05-07T04:43:05;13.36;75.03
65199;HTU21D;52170;45.018;37.910;2023-05-07T04:45:39;13.34;75.44
65199;HTU21D;52170;45.018;37.910;2023-05-07T04:48:08;13.33;75.31
65199;HTU21D;52170;45.018;37.910;2023-05-07T04:50:36;13.34;75.23
65199;HTU21D;52170;45.018;37.910;2023-05-07T04:53:02;13.34;75.17
65199;HTU21D;52170;45.018;37.910;2023-05-07T04:55:28;13.36;75.16
65199;HTU21D;52170;45.018;37.910;2023-05-07T04:57:54;13.38;75.15
65199;HTU21D;52170;45.018;37.910;2023-05-07T05:00:21;13.43;75.15
65199;HTU21D;52170;45.018;37.910;2023-05-07T05:02:48;13.47;75.15
65199;HTU21D;52170;45.018;37.910;2023-05-07T05:05:18;13.52;75.21
65199;HTU21D;52170;45.018;37.910;2023-05-07T05:07:44;13.55;75.10
65199;HTU21D;52170;45.018;37.910;2023-05-07T05:10:11;13.60;75.14
65199;HTU21D;52170;45.018;37.910;2023-05-07T05:12:38;13.65;75.05
65199;HTU21D;52170;45.018;37.910;2023-05-07T05:15:04;13.69;75.32
65199;HTU21D;52170;45.018;37.910;2023-05-07T05:17:31;13.74;75.21
65199;HTU21D;52170;45.018;37.910;2023-05-07T05:19:57;13.79;75.12
65199;HTU21D;52170;45.018;37.910;2023-05-07T05:22:23;13.81;75.06
65199;HTU21D;52170;45.018;37.910;2023-05-07T05:24:51;13.82;75.39
65199;HTU21D;52170;45.018;37.910;2023-05-07T05:27:17;13.82;75.74
65199;HTU21D;52170;45.018;37.910;2023-05-07T05:29:42;13.82;75.75
65199;HTU21D;52170;45.018;37.910;2023-05-07T05:32:08;13.83;76.54
65199;HTU21D;52170;45.018;37.910;2023-05-07T05:34:35;13.81;76.62
65199;HTU21D;52170;45.018;37.910;2023-05-07T05:37:01;13.80;76.12
65199;HTU21D;52170;45.018;37.910;2023-05-07T05:39:27;13.82;75.89
65199;HTU21D;52170;45.018;37.910;2023-05-07T05:41:53;13.83;76.32
65199;HTU21D;52170;45.018;37.910;2023-05-07T05:44:20;13.84;76.42
65199;HTU21D;52170;45.018;37.910;2023-05-07T05:46:46;13.86;76.24
65199;HTU21D;52170;45.018;37.910;2023-05-07T05:49:13;13.88;76.15
65199;HTU21D;52170;45.018;37.910;2023-05-07T05:51:41;13.92;76.25
65199;HTU21D;52170;45.018;37.910;2023-05-07T05:54:07;13.94;75.96
65199;HTU21D;52170;45.018;37.910;2023-05-07T05:56:33;13.96;75.97
65199;HTU21D;52170;45.018;37.910;2023-05-07T05:58:58;14.00;76.13
65199;HTU21D;52170;45.018;37.910;2023-05-07T06:01:25;14.00;76.26
65199;HTU21D;52170;45.018;37.910;2023-05-07T06:03:52;14.06;76.09
65199;HTU21D;52170;45.018;37.910;2023-05-07T06:06:18;14.09;75.77
65199;HTU21D;52170;45.018;37.910;2023-05-07T06:08:45;14.14;76.72
65199;HTU21D;52170;45.018;37.910;2023-05-07T06:11:15;14.17;76.66
65199;HTU21D;52170;45.018;37.910;2023-05-07T06:13:43;14.20;76.60
65199;HTU21D;52170;45.018;37.910;2023-05-07T06:16:10;14.20;76.58
65199;HTU21D;52170;45.018;37.910;2023-05-07T06:18:36;14.22;76.68
65199;HTU21D;52170;45.018;37.910;2023-05-07T06:21:02;14.25;76.67
65199;HTU21D;52170;45.018;37.910;2023-05-07T06:23:31;14.24;76.31
65199;HTU21D;52170;45.018;37.910;2023-05-07T06:25:58;14.25;76.86
65199;HTU21D;52170;45.018;37.910;2023-05-07T06:28:29;14.30;76.76
65199;HTU21D;52170;45.018;37.910;2023-05-07T06:31:10;14.34;77.44
65199;HTU21D;52170;45.018;37.910;2023-05-07T06:33:35;14.36;77.17
65199;HTU21D;52170;45.018;37.910;2023-05-07T06:36:01;14.39;77.95
65199;HTU21D;52170;45.018;37.910;2023-05-07T06:38:27;14.39;76.78
65199;HTU21D;52170;45.018;37.910;2023-05-07T06:40:53;14.42;77.02
65199;HTU21D;52170;45.018;37.910;2023-05-07T06:43:21;14.44;76.63
65199;HTU21D;52170;45.018;37.910;2023-05-07T06:45:53;14.48;76.49
65199;HTU21D;52170;45.018;37.910;2023-05-07T06:48:19;14.52;76.70
65199;HTU21D;52170;45.018;37.910;2023-05-07T06:51:00;14.57;76.48
65199;HTU21D;52170;45.018;37.910;2023-05-07T06:53:26;14.57;76.97
65199;HTU21D;52170;45.018;37.910;2023-05-07T06:55:53;14.56;76.55
65199;HTU21D;52170;45.018;37.910;2023-05-07T06:58:19;14.55;76.54
65199;HTU21D;52170;45.018;37.910;2023-05-07T07:00:45;14.54;76.21
65199;HTU21D;52170;45.018;37.910;2023-05-07T07:03:11;14.53;77.53
65199;HTU21D;52170;45.018;37.910;2023-05-07T07:05:40;14.41;76.99
65199;HTU21D;52170;45.018;37.910;2023-05-07T07:08:06;14.33;77.11
65199;HTU21D;52170;45.018;37.910;2023-05-07T07:10:32;14.26;76.99
65199;HTU21D;52170;45.018;37.910;2023-05-07T07:12:58;14.25;76.79
65199;HTU21D;52170;45.018;37.910;2023-05-07T07:15:24;14.24;76.64
65199;HTU21D;52170;45.018;37.910;2023-05-07T07:17:50;14.25;76.52
65199;HTU21D;52170;45.018;37.910;2023-05-07T07:20:17;14.27;76.34
65199;HTU21D;52170;45.018;37.910;2023-05-07T07:22:44;14.30;76.23
65199;HTU21D;52170;45.018;37.910;2023-05-07T07:25:10;14.34;76.16
65199;HTU21D;52170;45.018;37.910;2023-05-07T07:27:37;14.38;76.14
65199;HTU21D;52170;45.018;37.910;2023-05-07T07:30:06;14.43;76.00
65199;HTU21D;52170;45.018;37.910;2023-05-07T07:32:34;14.47;77.03
65199;HTU21D;52170;45.018;37.910;2023-05-07T07:35:00;14.45;76.19
65199;HTU21D;52170;45.018;37.910;2023-05-07T07:37:27;14.51;76.02
65199;HTU21D;52170;45.018;37.910;2023-05-07T07:39:53;14.56;76.06
65199;HTU21D;52170;45.018;37.910;2023-05-07T07:42:20;14.57;75.99
65199;HTU21D;52170;45.018;37.910;2023-05-07T07:44:46;14.62;76.36
65199;HTU21D;52170;45.018;37.910;2023-05-07T07:47:14;14.63;75.93
65199;HTU21D;52170;45.018;37.910;2023-05-07T07:49:41;14.67;75.73
65199;HTU21D;52170;45.018;37.910;2023-05-07T07:52:08;14.73;75.54
65199;HTU21D;52170;45.018;37.910;2023-05-07T07:54:36;14.82;75.49
65199;HTU21D;52170;45.018;37.910;2023-05-07T07:57:03;14.92;75.46
65199;HTU21D;52170;45.018;37.910;2023-05-07T07:59:31;14.96;75.39
65199;HTU21D;52170;45.018;37.910;2023-05-07T08:01:57;14.99;75.35
65199;HTU21D;52170;45.018;37.910;2023-05-07T08:04:25;15.02;75.53
65199;HTU21D;52170;45.018;37.910;2023-05-07T08:06:51;15.08;75.38
65199;HTU21D;52170;45.018;37.910;2023-05-07T08:09:20;15.14;75.31
65199;HTU21D;52170;45.018;37.910;2023-05-07T08:11:46;15.16;75.24
65199;HTU21D;52170;45.018;37.910;2023-05-07T08:14:13;15.25;75.41
65199;HTU21D;52170;45.018;37.910;2023-05-07T08:16:39;15.29;75.21
65199;HTU21D;52170;45.018;37.910;2023-05-07T08:19:06;15.33;75.26
65199;HTU21D;52170;45.018;37.910;2023-05-07T08:21:32;15.39;75.30
65199;HTU21D;52170;45.018;37.910;2023-05-07T08:23:58;15.43;75.28
65199;HTU21D;52170;45.018;37.910;2023-05-07T08:26:24;15.43;75.60
65199;HTU21D;52170;45.018;37.910;2023-05-07T08:28:49;15.40;75.29
65199;HTU21D;52170;45.018;37.910;2023-05-07T08:31:15;15.41;75.41
65199;HTU21D;52170;45.018;37.910;2023-05-07T08:33:43;15.42;75.30
65199;HTU21D;52170;45.018;37.910;2023-05-07T08:36:09;15.42;75.24
65199;HTU21D;52170;45.018;37.910;2023-05-07T08:38:34;15.44;75.23
65199;HTU21D;52170;45.018;37.910;2023-05-07T08:41:01;15.46;75.50
65199;HTU21D;52170;45.018;37.910;2023-05-07T08:43:28;15.48;75.07
65199;HTU21D;52170;45.018;37.910;2023-05-07T08:45:56;15.51;75.24
65199;HTU21D;52170;45.018;37.910;2023-05-07T08:48:27;15.54;75.06
65199;HTU21D;52170;45.018;37.910;2023-05-07T08:51:03;15.57;74.94
65199;HTU21D;52170;45.018;37.910;2023-05-07T08:53:30;15.60;74.92
65199;HTU21D;52170;45.018;37.910;2023-05-07T08:55:56;15.68;75.02
65199;HTU21D;52170;45.018;37.910;2023-05-07T08:58:21;15.74;74.84
65199;HTU21D;52170;45.018;37.910;2023-05-07T09:00:48;15.81;74.81
65199;HTU21D;52170;45.018;37.910;2023-05-07T09:03:15;15.86;74.64
65199;HTU21D;52170;45.018;37.910;2023-05-07T09:05:45;15.91;74.45
65199;HTU21D;52170;45.018;37.910;2023-05-07T09:08:14;15.95;74.73
65199;HTU21D;52170;45.018;37.910;2023-05-07T09:10:40;15.96;74.54
65199;HTU21D;52170;45.018;37.910;2023-05-07T09:13:06;15.99;74.48
65199;HTU21D;52170;45.018;37.910;2023-05-07T09:15:32;16.02;74.71
65199;HTU21D;52170;45.018;37.910;2023-05-07T09:17:59;16.06;74.51
65199;HTU21D;52170;45.018;37.910;2023-05-07T09:20:29;16.12;74.38
65199;HTU21D;52170;45.018;37.910;2023-05-07T09:22:55;16.20;74.32
65199;HTU21D;52170;45.018;37.910;2023-05-07T09:25:29;16.28;74.16
65199;HTU21D;52170;45.018;37.910;2023-05-07T09:27:56;16.37;74.09
65199;HTU21D;52170;45.018;37.910;2023-05-07T09:30:22;16.44;73.97
65199;HTU21D;52170;45.018;37.910;2023-05-07T09:32:49;16.52;73.95
65199;HTU21D;52170;45.018;37.910;2023-05-07T09:35:18;16.59;73.83
65199;HTU21D;52170;45.018;37.910;2023-05-07T09:37:51;16.66;73.64
65199;HTU21D;52170;45.018;37.910;2023-05-07T09:40:27;16.74;73.62
65199;HTU21D;52170;45.018;37.910;2023-05-07T09:42:55;16.78;73.58
65199;HTU21D;52170;45.018;37.910;2023-05-07T09:45:22;16.78;73.69
65199;HTU21D;52170;45.018;37.910;2023-05-07T09:47:49;16.75;73.73
65199;HTU21D;52170;45.018;37.910;2023-05-07T09:50:16;16.74;73.77
65199;HTU21D;52170;45.018;37.910;2023-05-07T09:52:42;16.69;73.80
65199;HTU21D;52170;45.018;37.910;2023-05-07T09:55:09;16.63;73.87
65199;HTU21D;52170;45.018;37.910;2023-05-07T09:57:36;16.60;74.00
65199;HTU21D;52170;45.018;37.910;2023-05-07T10:00:06;16.57;73.97
65199;HTU21D;52170;45.018;37.910;2023-05-07T10:02:46;16.52;74.09
65199;HTU21D;52170;45.018;37.910;2023-05-07T10:05:15;16.48;74.11
65199;HTU21D;52170;45.018;37.910;2023-05-07T10:07:42;16.45;74.13
65199;HTU21D;52170;45.018;37.910;2023-05-07T10:10:09;16.42;74.30
65199;HTU21D;52170;45.018;37.910;2023-05-07T10:12:40;16.37;74.21
65199;HTU21D;52170;45.018;37.910;2023-05-07T10:15:12;16.37;74.15
65199;HTU21D;52170;45.018;37.910;2023-05-07T10:17:40;16.37;74.11
65199;HTU21D;52170;45.018;37.910;2023-05-07T10:20:07;16.35;74.19
65199;HTU21D;52170;45.018;37.910;2023-05-07T10:22:37;16.33;74.43
65199;HTU21D;52170;45.018;37.910;2023-05-07T10:25:04;16.29;74.32
65199;HTU21D;52170;45.018;37.910;2023-05-07T10:27:32;16.30;74.22
65199;HTU21D;52170;45.018;37.910;2023-05-07T10:35:06;16.32;74.15
65199;HTU21D;52170;45.018;37.910;2023-05-07T10:37:35;16.35;74.16
65199;HTU21D;52170;45.018;37.910;2023-05-07T10:40:01;16.35;74.04
65199;HTU21D;52170;45.018;37.910;2023-05-07T10:42:29;16.35;74.03
65199;HTU21D;52170;45.018;37.910;2023-05-07T10:44:56;16.40;73.99
65199;HTU21D;52170;45.018;37.910;2023-05-07T10:47:26;16.40;73.99
65199;HTU21D;52170;45.018;37.910;2023-05-07T10:52:34;16.42;74.02
65199;HTU21D;52170;45.018;37.910;2023-05-07T11:01:48;16.44;73.99
65199;HTU21D;52170;45.018;37.910;2023-05-07T11:04:13;16.45;73.92
65199;HTU21D;52170;45.018;37.910;2023-05-07T11:07:08;16.44;74.01
65199;HTU21D;52170;45.018;37.910;2023-05-07T11:12:14;16.45;73.98
65199;HTU21D;52170;45.018;37.910;2023-05-07T11:14:47;16.44;73.96
65199;HTU21D;52170;45.018;37.910;2023-05-07T11:17:30;16.44;73.94
65199;HTU21D;52170;45.018;37.910;2023-05-07T11:20:03;16.44;73.93
65199;HTU21D;52170;45.018;37.910;2023-05-07T11:22:39;16.43;73.93
65199;HTU21D;52170;45.018;37.910;2023-05-07T11:25:19;16.41;73.96
65199;HTU21D;52170;45.018;37.910;2023-05-07T11:27:50;16.39;74.03
65199;HTU21D;52170;45.018;37.910;2023-05-07T11:30:18;16.36;74.04
65199;HTU21D;52170;45.018;37.910;2023-05-07T11:32:47;16.36;74.07
65199;HTU21D;52170;45.018;37.910;2023-05-07T11:35:15;16.39;74.10
65199;HTU21D;52170;45.018;37.910;2023-05-07T11:37:43;16.39;74.12
65199;HTU21D;52170;45.018;37.910;2023-05-07T11:40:10;16.39;74.11
65199;HTU21D;52170;45.018;37.910;2023-05-07T11:42:37;16.39;74.11
65199;HTU21D;52170;45.018;37.910;2023-05-07T11:45:03;16.39;74.10
65199;HTU21D;52170;45.018;37.910;2023-05-07T11:47:30;16.36;74.23
65199;HTU21D;52170;45.018;37.910;2023-05-07T11:49:56;16.32;74.43
65199;HTU21D;52170;45.018;37.910;2023-05-07T11:52:22;16.26;74.47
65199;HTU21D;52170;45.018;37.910;2023-05-07T11:54:51;16.24;74.62
65199;HTU21D;52170;45.018;37.910;2023-05-07T11:57:18;16.21;74.60
65199;HTU21D;52170;45.018;37.910;2023-05-07T11:59:44;16.20;74.60
65199;HTU21D;52170;45.018;37.910;2023-05-07T12:02:10;16.20;74.65
65199;HTU21D;52170;45.018;37.910;2023-05-07T12:04:35;16.20;74.59
65199;HTU21D;52170;45.018;37.910;2023-05-07T12:07:03;16.19;74.63
65199;HTU21D;52170;45.018;37.910;2023-05-07T12:09:29;16.18;74.62
65199;HTU21D;52170;45.018;37.910;2023-05-07T12:11:55;16.17;74.57
65199;HTU21D;52170;45.018;37.910;2023-05-07T12:14:21;16.20;74.61
65199;HTU21D;52170;45.018;37.910;2023-05-07T12:16:47;16.19;74.64
65199;HTU21D;52170;45.018;37.910;2023-05-07T12:19:13;16.18;74.76
65199;HTU21D;52170;45.018;37.910;2023-05-07T12:21:39;16.17;74.84
65199;HTU21D;52170;45.018;37.910;2023-05-07T12:24:05;16.16;75.05
65199;HTU21D;52170;45.018;37.910;2023-05-07T12:26:31;16.13;75.04
65199;HTU21D;52170;45.018;37.910;2023-05-07T12:28:57;16.11;75.02
65199;HTU21D;52170;45.018;37.910;2023-05-07T12:31:22;16.07;75.15
65199;HTU21D;52170;45.018;37.910;2023-05-07T12:33:50;16.04;75.26
65199;HTU21D;52170;45.018;37.910;2023-05-07T12:36:16;16.00;75.55
65199;HTU21D;52170;45.018;37.910;2023-05-07T12:38:42;15.97;75.75
65199;HTU21D;52170;45.018;37.910;2023-05-07T12:41:08;15.93;75.62
65199;HTU21D;52170;45.018;37.910;2023-05-07T12:43:35;15.89;75.76
65199;HTU21D;52170;45.018;37.910;2023-05-07T12:46:03;15.86;75.79
65199;HTU21D;52170;45.018;37.910;2023-05-07T12:48:29;15.84;75.75
65199;HTU21D;52170;45.018;37.910;2023-05-07T12:50:55;15.84;75.75
65199;HTU21D;52170;45.018;37.910;2023-05-07T12:53:22;15.83;75.98
65199;HTU21D;52170;45.018;37.910;2023-05-07T12:55:49;15.81;76.15
65199;HTU21D;52170;45.018;37.910;2023-05-07T12:58:16;15.80;75.99
65199;HTU21D;52170;45.018;37.910;2023-05-07T13:00:42;15.81;76.12
65199;HTU21D;52170;45.018;37.910;2023-05-07T13:03:08;15.80;76.10
65199;HTU21D;52170;45.018;37.910;2023-05-07T13:05:34;15.78;76.07
65199;HTU21D;52170;45.018;37.910;2023-05-07T13:08:00;15.75;76.03
65199;HTU21D;52170;45.018;37.910;2023-05-07T13:10:26;15.72;76.17
65199;HTU21D;52170;45.018;37.910;2023-05-07T13:12:52;15.71;76.31
65199;HTU21D;52170;45.018;37.910;2023-05-07T13:15:18;15.66;76.35
65199;HTU21D;52170;45.018;37.910;2023-05-07T13:17:44;15.65;76.30
65199;HTU21D;52170;45.018;37.910;2023-05-07T13:20:10;15.60;76.31
65199;HTU21D;52170;45.018;37.910;2023-05-07T13:22:36;15.60;76.31
65199;HTU21D;52170;45.018;37.910;2023-05-07T13:25:02;15.58;76.40
65199;HTU21D;52170;45.018;37.910;2023-05-07T13:27:28;15.57;76.39
65199;HTU21D;52170;45.018;37.910;2023-05-07T13:29:56;15.55;76.47
65199;HTU21D;52170;45.018;37.910;2023-05-07T13:32:22;15.54;76.65
65199;HTU21D;52170;45.018;37.910;2023-05-07T13:34:47;15.53;76.82
65199;HTU21D;52170;45.018;37.910;2023-05-07T13:37:13;15.53;77.15
65199;HTU21D;52170;45.018;37.910;2023-05-07T13:39:39;15.47;77.30
65199;HTU21D;52170;45.018;37.910;2023-05-07T13:42:04;15.44;77.17
65199;HTU21D;52170;45.018;37.910;2023-05-07T13:44:30;15.43;77.23
65199;HTU21D;52170;45.018;37.910;2023-05-07T13:46:56;15.43;77.29
65199;HTU21D;52170;45.018;37.910;2023-05-07T13:49:22;15.42;77.15
65199;HTU21D;52170;45.018;37.910;2023-05-07T13:51:47;15.40;77.34
65199;HTU21D;52170;45.018;37.910;2023-05-07T13:54:13;15.38;77.31
65199;HTU21D;52170;45.018;37.910;2023-05-07T13:56:39;15.33;77.48
65199;HTU21D;52170;45.018;37.910;2023-05-07T13:59:05;15.29;77.82
65199;HTU21D;52170;45.018;37.910;2023-05-07T14:01:30;15.24;77.95
65199;HTU21D;52170;45.018;37.910;2023-05-07T14:03:56;15.18;77.93
65199;HTU21D;52170;45.018;37.910;2023-05-07T14:06:23;15.12;78.30
65199;HTU21D;52170;45.018;37.910;2023-05-07T14:08:49;15.09;78.34
65199;HTU21D;52170;45.018;37.910;2023-05-07T14:11:15;15.02;78.75
65199;HTU21D;52170;45.018;37.910;2023-05-07T14:13:41;14.99;78.64
65199;HTU21D;52170;45.018;37.910;2023-05-07T14:16:08;14.95;78.69
65199;HTU21D;52170;45.018;37.910;2023-05-07T14:18:34;14.94;78.60
65199;HTU21D;52170;45.018;37.910;2023-05-07T14:21:02;14.89;78.56
65199;HTU21D;52170;45.018;37.910;2023-05-07T14:23:28;14.91;78.46
65199;HTU21D;52170;45.018;37.910;2023-05-07T14:25:53;14.89;78.44
65199;HTU21D;52170;45.018;37.910;2023-05-07T14:28:19;14.86;78.64
65199;HTU21D;52170;45.018;37.910;2023-05-07T14:30:46;14.82;78.64
65199;HTU21D;52170;45.018;37.910;2023-05-07T14:33:12;14.80;79.14
65199;HTU21D;52170;45.018;37.910;2023-05-07T14:35:37;14.74;79.37
65199;HTU21D;52170;45.018;37.910;2023-05-07T14:38:03;14.69;79.99
65199;HTU21D;52170;45.018;37.910;2023-05-07T14:40:29;14.64;80.16
65199;HTU21D;52170;45.018;37.910;2023-05-07T14:42:54;14.57;79.98
65199;HTU21D;52170;45.018;37.910;2023-05-07T14:45:22;14.54;79.81
65199;HTU21D;52170;45.018;37.910;2023-05-07T14:47:48;14.53;79.89
65199;HTU21D;52170;45.018;37.910;2023-05-07T14:50:14;14.51;79.98
65199;HTU21D;52170;45.018;37.910;2023-05-07T14:52:39;14.49;80.17
65199;HTU21D;52170;45.018;37.910;2023-05-07T14:55:05;14.47;79.93
65199;HTU21D;52170;45.018;37.910;2023-05-07T14:57:31;14.45;80.02
65199;HTU21D;52170;45.018;37.910;2023-05-07T15:00:00;14.43;80.01
65199;HTU21D;52170;45.018;37.910;2023-05-07T15:02:26;14.41;79.95
65199;HTU21D;52170;45.018;37.910;2023-05-07T15:04:52;14.39;80.14
65199;HTU21D;52170;45.018;37.910;2023-05-07T15:07:18;14.38;80.05
65199;HTU21D;52170;45.018;37.910;2023-05-07T15:09:44;14.38;79.92
65199;HTU21D;52170;45.018;37.910;2023-05-07T15:12:10;14.37;79.95
65199;HTU21D;52170;45.018;37.910;2023-05-07T15:14:37;14.36;79.88
65199;HTU21D;52170;45.018;37.910;2023-05-07T15:17:03;14.37;79.82
65199;HTU21D;52170;45.018;37.910;2023-05-07T15:19:28;14.35;79.73